NCAR-RAP Real-Time Weather Data

Output produced by METARs form (26 May 2022  08:35 UTC)
found at http://weather.rap.ucar.edu/surface/
 
KIAH 260753Z 00000KT 10SM CLR 16/14 A2995 RMK AO2 SLP140 T01610144
KIAH 260653Z 00000KT 10SM CLR 17/15 A2996 RMK AO2 SLP143 T01720150
KIAH 260553Z 00000KT 10SM CLR 18/15 A2996 RMK AO2 SLP146 T01780150 10267 20178 402830178 51015
KIAH 260453Z 36003KT 10SM CLR 21/14 A2996 RMK AO2 SLP143 T02060144
KIAH 260353Z 00000KT 10SM CLR 21/14 A2995 RMK AO2 SLP140 T02110144
KIAH 260253Z 00000KT 10SM CLR 21/16 A2992 RMK AO2 SLP131 T02060156 53028
KIAH 260153Z 31005KT 10SM CLR 23/13 A2989 RMK AO2 SLP121 T02330133
KIAH 260053Z 33006KT 10SM FEW040 FEW100 25/13 A2986 RMK AO2 SLP110 T02500133
KIAH 252353Z 31006KT 10SM FEW040 27/14 A2984 RMK AO2 SLP103 T02670139 10283 20250 53007
KIAH 252253Z 33009KT 10SM FEW040 FEW250 28/14 A2983 RMK AO2 SLP099 T02780144
KIAH 252153Z 33008KT 10SM FEW044 FEW250 28/16 A2983 RMK AO2 SLP099 T02780156
KIAH 252053Z 35008KT 10SM FEW042 FEW250 28/16 A2982 RMK AO2 SLP096 T02780161 58013
KIAH 251953Z 31010G17KT 10SM SCT040 SCT250 28/17 A2983 RMK AO2 SLP099 T02830172
KIAH 251853Z 27007G14KT 230V310 10SM SCT035 BKN250 26/17 A2985 RMK AO2 SLP108 T02610167
KIAH 251753Z VRB03KT 10SM SCT030 BKN250 26/17 A2986 RMK AO2 SLP109 T02560167 10256 20178 53013
KIAH 251653Z 34005KT 10SM SCT022 BKN250 23/17 A2984 RMK AO2 SLP103 T02330167 $
KIAH 251553Z 33009KT 10SM SCT017 OVC250 22/17 A2982 RMK AO2 SLP099 T02170172
KIAH 251532Z 31010KT 10SM BKN015 OVC220 21/17 A2982 RMK AO2 T02110167
KIAH 251453Z 31007KT 10SM BKN011 OVC200 20/17 A2982 RMK AO2 SLP096 T02000167 51020
KIAH 251418Z 32009KT 10SM BKN010 OVC180 19/17 A2981 RMK AO2 T01940172
KIAH 251353Z 30006KT 10SM FEW010 OVC180 19/17 A2981 RMK AO2 SLP092 T01940172
KIAH 251253Z 21004KT 10SM FEW009 OVC160 18/17 A2978 RMK AO2 SLP084 T01830167
KIAH 251153Z 30008KT 10SM SCT009 SCT060 BKN110 OVC150 18/16 A2976 RMK AO2 RAB00E30 PRESRR SLP077 P0000 60132 70146 T01780161 10233 20178 58033
KIAH 251053Z 12011KT 10SM FEW060 SCT085 OVC110 18/16 A2976 RMK AO2 RAE50 SLP077 P0002 T01780161
KIAH 250953Z 03004KT 10SM RA SCT075 BKN095 OVC120 18/16 A2986 RMK AO2 LTG DSNT E SLP110 P0009 T01780161
KIAH 250928Z 31003KT 6SM RA BR FEW013 FEW030 BKN090 OVC130 18/17 A2988 RMK AO2 OCNL LTGICCC DSNT N S W CB DSNT N S W MOV E P0006 T01830167
KIAH 250853Z 32010G20KT 3SM RA BR BKN010 BKN026 OVC100 18/17 A2986 RMK AO2 PK WND 31032/0802 TSE46 SLP110 OCNL LTGIC DSNT N SE TS MOVD SE CB DSNT N SE MOV SE P0119 60121 T01780167 53035
KIAH 250846Z 32012G23KT 2 1/2SM +RA BR BKN010 BKN019 OVC039 18/17 A2985 RMK AO2 PK WND 31032/0802 TSE46 OCNL LTGIC DSNT E TS MOVD SE CB DSNT E MOV SE P0116 T01780167
KIAH 250833Z 29009G17KT 2SM +TSRA BKN008 BKN016 OVC028CB 18/17 A2987 RMK AO2 PK WND 31032/0802 OCNL LTGICCC N-E TS N-E MOV SE CB DSNT SW MOV SE P0103 T01830167
KIAH 250753Z 33008KT 5SM +TSRA BR SCT032CB BKN047 OVC110 23/21 A2979 RMK AO2 RAB0654E03B29 TSB50 SLP086 OCNL LTGICCC SW-W CB SW-W MOV SE P0002 T02280206
KIAH 250653Z 19003KT 10SM BKN130 BKN170 BKN250 23/21 A2977 RMK AO2 SLP079 OCNL LTGICCC DSNT NW CB DSNT NW MOV SE T02280206
KIAH 250553Z 15005KT 10SM FEW100 BKN170 BKN250 23/21 A2975 RMK AO2 SLP075 T02280206 10256 20217 402670206 50003
KIAH 250453Z 15007KT 10SM FEW110 BKN250 23/21 A2976 RMK AO2 SLP077 T02330206
KIAH 250353Z 16004KT 10SM BKN250 23/20 A2976 RMK AO2 SLP078 T02280200
KIAH 250253Z 20003KT 10SM FEW025 SCT110 BKN250 24/19 A2974 RMK AO2 SLP072 T02440194 53023
KIAH 250153Z 17004KT 10SM FEW030 OVC250 25/19 A2970 RMK AO2 SLP055 T02500194
KIAH 250053Z 16009KT 10SM FEW030 FEW040 OVC250 26/21 A2968 RMK AO2 SLP051 T02560211
KIAH 242353Z 13012KT 10SM FEW022 FEW036 OVC250 26/22 A2968 RMK AO2 SLP049 60000 T02560217 10261 20217 58027
KIAH 242253Z 12011KT 10SM FEW018 FEW032 SCT060 OVC250 26/22 A2972 RMK AO2 SLP062 T02560217
KIAH 242153Z 11011KT 10SM FEW014 SCT110 OVC220 25/21 A2972 RMK AO2 SLP065 T02500211
KIAH 242053Z 11019G27KT 10SM FEW010 SCT020 OVC110 24/21 A2976 RMK AO2 PK WND 11027/2051 RAB1954E12 SLP076 P0000 60000 T02390211 58010
KIAH 241953Z 00000KT 10SM FEW011 BKN095 OVC140 23/21 A2979 RMK AO2 SLP086 T02330211
KIAH 241853Z 10003KT 10SM FEW010 SCT035 BKN110 OVC160 23/21 A2980 RMK AO2 LTG DSNT W RAE02B24E42 SLP089 CB DSNT W P0000 T02330211
KIAH 241753Z 08007KT 10SM -RA FEW035 BKN110 OVC180 22/20 A2979 RMK AO2 TSE14 SLP086 P0011 60014 T02170200 10267 20206 56009
KIAH 241714Z COR 10008KT 7SM RA SCT015 BKN110 OVC180 21/19 A2980 RMK AO2 LTG DSNT NW-E TSE14 CB DSNT NW-E MOVG N TS MOVD N P0005 T02060189
KIAH 241653Z 14010KT 7SM TSRA SCT015CB SCT035 BKN100 OVC180 21/19 A2981 RMK AO2 PK WND 16038/1616 SLP095 OCNL LTGICCC NW-NE TS NW-NE MOVG N P0003 T02060194
KIAH 241643Z 15012KT 4SM -TSRA BR SCT015CB BKN035 BKN100 OVC180 21/19 A2982 RMK AO2 PK WND 16038/1616 OCNL LTGICCC NW-NE TS NW-NE MOVG N P0003 T02060189
KIAH 241625Z 17020G38KT 2SM -TSRA BKN015CB BKN030 OVC065 22/19 A2982 RMK AO2 PK WND 16038/1616 FRQ LTGICCCCG ALQDS TS ALQDS MOVG N P0000 T02170189
KIAH 241553Z 12006KT 7SM -TSRA SCT015CB BKN025 BKN065 OVC180 26/23 A2978 RMK AO2 RAB51 TSB53 SLP085 FRQ LTGIC E-S TS E-S MOVG N P0000 T02610228
KIAH 241453Z 13005KT 10SM SCT015CB SCT060 BKN180 OVC250 26/23 A2981 RMK AO2 SLP095 CB AND VCSH NW MOVG N T02610228 50003
KIAH 241437Z 14006KT 10SM FEW010 SCT020 BKN055 BKN180 OVC250 26/23 A2982 RMK AO2 LTG DSNT NE CB DSNT NE VCSH W-NW T02560228
KIAH 241353Z 11008KT 7SM FEW007 BKN015 BKN055 OVC250 24/22 A2984 RMK AO2 SLP103 T02440222
KIAH 241253Z 10008KT 5SM BR SCT005 BKN010 BKN020 OVC250 23/22 A2981 RMK AO2 SLP095 T02280217
KIAH 241153Z 09006KT 3SM BR SCT006 BKN020 BKN250 22/21 A2980 RMK AO2 SLP092 T02220211 10222 20211 58003
KIAH 241053Z 05005KT 7SM SCT008 BKN015 BKN038 OVC250 22/21 A2983 RMK AO2 SLP099 T02220206
KIAH 241029Z 10006KT 10SM FEW008 SCT023 BKN039 OVC250 22/21 A2983 RMK AO2 T02220206
KIAH 240953Z 13004KT 10SM BKN008 OVC020 22/20 A2983 RMK AO2 SLP101 T02170200
KIAH 240915Z COR 12006KT 10SM BKN008 BKN020 BKN200 OVC250 22/20 A2982 RMK AO2 T02170200
KIAH 240853Z 13007KT 10SM SCT008 SCT020 BKN200 OVC250 22/19 A2981 RMK AO2 SLP095 T02170194 55020